createdAt,value
2023-04-15T00:00:53.740Z,97062.80
2023-04-15T00:04:06.045Z,97065.51
2023-04-15T00:07:20.485Z,97059.41
2023-04-15T00:10:48.489Z,97062.29
2023-04-15T00:13:59.614Z,97065.64
2023-04-15T00:17:10.506Z,97071.95
2023-04-15T00:20:28.358Z,97074.07
2023-04-15T00:23:47.753Z,97073.86
2023-04-15T00:27:00.017Z,97078.29
2023-04-15T00:30:12.560Z,97076.76
2023-04-15T00:33:23.328Z,97070.54
2023-04-15T00:36:35.918Z,97062.03
2023-04-15T00:39:54.767Z,97057.34
2023-04-15T00:43:05.815Z,97054.09
2023-04-15T00:46:17.719Z,97049.88
2023-04-15T00:49:29.664Z,97044.30
2023-04-15T00:52:48.878Z,97045.87
2023-04-15T00:56:04.479Z,97054.84
2023-04-15T00:59:32.078Z,97050.29
2023-04-15T01:02:45.079Z,97061.20
2023-04-15T01:05:56.669Z,97066.67
2023-04-15T01:09:09.953Z,97067.41
2023-04-15T01:12:22.679Z,97067.25
2023-04-15T01:15:33.532Z,97070.04
2023-04-15T01:18:44.425Z,97079.33
2023-04-15T01:21:55.407Z,97076.15
2023-04-15T01:25:08.996Z,97079.98
2023-04-15T01:28:22.998Z,97087.88
2023-04-15T01:31:35.898Z,97091.05
2023-04-15T01:34:49.690Z,97090.56
2023-04-15T01:38:01.904Z,97080.46
2023-04-15T01:41:14.800Z,97074.63
2023-04-15T01:44:28.449Z,97071.75
2023-04-15T01:47:39.361Z,97074.84
2023-04-15T01:50:50.878Z,97080.66
2023-04-15T01:54:11.447Z,97088.05
2023-04-15T01:57:17.367Z,97092.27
2023-04-15T02:00:38.294Z,97090.15
2023-04-15T02:03:50.657Z,97096.88
2023-04-15T02:07:05.656Z,97105.31
2023-04-15T02:10:16.569Z,97100.64
2023-04-15T02:13:36.067Z,97097.12
2023-04-15T02:16:55.675Z,97107.14
2023-04-15T02:20:07.235Z,97112.20
2023-04-15T02:23:29.833Z,97117.92
2023-04-15T02:26:49.183Z,97120.20
2023-04-15T02:30:01.080Z,97124.38
2023-04-15T02:33:20.318Z,97127.77
2023-04-15T02:36:31.284Z,97123.78
2023-04-15T02:39:47.210Z,97120.16
2023-04-15T02:43:00.106Z,97120.58
2023-04-15T02:46:12.966Z,97113.70
2023-04-15T02:49:25.186Z,97109.71
2023-04-15T02:52:46.503Z,97106.52
2023-04-15T02:55:57.314Z,97109.08
2023-04-15T02:59:10.843Z,97115.36
2023-04-15T03:02:22.772Z,97116.11
2023-04-15T03:05:36.758Z,97120.84
2023-04-15T03:08:49.886Z,97117.67
2023-04-15T03:12:01.590Z,97119.65
2023-04-15T03:15:13.461Z,97117.65
2023-04-15T03:18:24.735Z,97124.66
2023-04-15T03:21:37.529Z,97126.44
2023-04-15T03:24:50.352Z,97124.97
2023-04-15T03:28:05.699Z,97130.25
2023-04-15T03:31:16.984Z,97133.16
2023-04-15T03:34:36.224Z,97132.30
2023-04-15T03:37:56.553Z,97133.07
2023-04-15T03:41:07.420Z,97132.38
2023-04-15T03:44:18.233Z,97132.27
2023-04-15T03:47:31.118Z,97142.14
2023-04-15T03:50:44.814Z,97153.82
2023-04-15T03:54:05.064Z,97160.46
2023-04-15T03:57:17.552Z,97169.67
2023-04-15T04:00:32.863Z,97172.40
2023-04-15T04:03:44.481Z,97177.95
2023-04-15T04:07:12.724Z,97186.92
2023-04-15T04:10:25.522Z,97190.45
2023-04-15T04:13:43.219Z,97185.33
2023-04-15T04:16:56.037Z,97184.83
2023-04-15T04:20:15.230Z,97189.67
2023-04-15T04:23:35.531Z,97192.15
2023-04-15T04:27:03.150Z,97195.80
2023-04-15T04:30:15.953Z,97197.61
2023-04-15T04:33:29.370Z,97199.66
2023-04-15T04:36:40.233Z,97204.94
2023-04-15T04:39:52.128Z,97202.91
2023-04-15T04:43:05.811Z,97197.00
2023-04-15T04:46:17.526Z,97197.78
2023-04-15T04:49:29.110Z,97201.09
2023-04-15T04:52:42.146Z,97208.98
2023-04-15T04:56:01.441Z,97211.04
2023-04-15T04:59:06.012Z,97213.45
2023-04-15T05:02:10.774Z,97210.33
2023-04-15T05:05:27.768Z,97215.05
2023-04-15T05:08:40.374Z,97216.34
2023-04-15T05:11:52.107Z,97217.14
2023-04-15T05:15:05.907Z,97222.96
2023-04-15T05:18:19.133Z,97224.61
2023-04-15T05:21:31.796Z,97231.75
2023-04-15T05:24:42.598Z,97234.37
2023-04-15T05:27:56.080Z,97237.55
2023-04-15T05:31:17.009Z,97237.59
2023-04-15T05:34:29.568Z,97237.30
2023-04-15T05:37:44.308Z,97233.61
2023-04-15T05:40:55.301Z,97233.45
2023-04-15T05:44:07.303Z,97241.02
2023-04-15T05:47:26.728Z,97245.63
2023-04-15T05:50:38.407Z,97240.73
2023-04-15T05:53:49.357Z,97244.63
2023-04-15T05:56:48.713Z,97238.23
2023-04-15T06:00:07.491Z,97240.51
2023-04-15T06:03:26.975Z,97237.52
2023-04-15T06:06:26.805Z,97241.18
2023-04-15T06:09:40.387Z,97246.66
2023-04-15T06:12:47.296Z,97251.02
2023-04-15T06:16:06.824Z,97256.45
2023-04-15T06:19:08.032Z,97259.38
2023-04-15T06:22:12.724Z,97260.68
2023-04-15T06:25:23.685Z,97264.69
2023-04-15T06:28:35.173Z,97264.44
2023-04-15T06:31:48.930Z,97265.09
2023-04-15T06:35:09.035Z,97264.27
2023-04-15T06:38:21.905Z,97266.45
2023-04-15T06:41:42.185Z,97267.77
2023-04-15T06:44:54.992Z,97266.45
2023-04-15T06:48:09.179Z,97267.87
2023-04-15T06:51:22.104Z,97277.02
2023-04-15T06:54:26.128Z,97279.45
2023-04-15T06:57:40.050Z,97280.63
2023-04-15T07:01:00.652Z,97284.98
2023-04-15T07:04:11.926Z,97293.95
2023-04-15T07:07:18.393Z,97294.25
2023-04-15T07:10:23.932Z,97297.48
2023-04-15T07:13:44.553Z,97294.09
2023-04-15T07:16:45.441Z,97298.50
2023-04-15T07:20:02.654Z,97304.10
2023-04-15T07:23:15.073Z,97301.70
2023-04-15T07:26:27.933Z,97303.90
2023-04-15T07:29:40.282Z,97305.88
2023-04-15T07:32:51.715Z,97313.50
2023-04-15T07:36:03.989Z,97313.59
2023-04-15T07:39:25.646Z,97317.16
2023-04-15T07:42:46.325Z,97311.16
2023-04-15T07:46:05.940Z,97318.34
2023-04-15T07:49:08.558Z,97321.52
2023-04-15T07:52:18.802Z,97323.30
2023-04-15T07:55:34.120Z,97325.02
2023-04-15T07:58:45.212Z,97321.88
2023-04-15T08:02:07.320Z,97326.80
2023-04-15T08:05:18.269Z,97329.55
2023-04-15T08:08:29.731Z,97332.48
2023-04-15T08:11:40.623Z,97331.86
2023-04-15T08:15:08.395Z,97338.24
2023-04-15T08:18:19.737Z,97334.67
2023-04-15T08:21:33.259Z,97336.47
2023-04-15T08:24:45.946Z,97332.94
2023-04-15T08:28:04.264Z,97336.04
2023-04-15T08:31:16.910Z,97331.75
2023-04-15T08:34:31.466Z,97340.52
2023-04-15T08:37:42.679Z,97337.46
2023-04-15T08:40:54.708Z,97336.51
2023-04-15T08:43:54.745Z,97334.98
2023-04-15T08:47:06.320Z,97341.73
2023-04-15T08:50:26.213Z,97335.76
2023-04-15T08:53:46.521Z,97333.20
2023-04-15T08:57:06.035Z,97338.44
2023-04-15T09:00:13.269Z,97341.48
2023-04-15T09:03:24.009Z,97337.65
2023-04-15T09:06:36.337Z,97344.05
2023-04-15T09:09:47.605Z,97343.59
2023-04-15T09:12:59.121Z,97345.99
2023-04-15T09:16:19.304Z,97343.29
2023-04-15T09:19:32.200Z,97341.52
2023-04-15T09:22:44.599Z,97333.94
2023-04-15T09:25:44.230Z,97331.96
2023-04-15T09:28:58.298Z,97336.14
2023-04-15T09:32:29.202Z,97335.79
2023-04-15T09:35:42.062Z,97332.80
2023-04-15T09:38:46.821Z,97334.60
2023-04-15T09:42:06.950Z,97331.01
2023-04-15T09:45:19.187Z,97331.28
2023-04-15T09:48:48.606Z,97333.20
2023-04-15T09:52:04.114Z,97343.13
2023-04-15T09:55:29.266Z,97339.79
2023-04-15T09:58:32.792Z,97334.73
2023-04-15T10:01:44.676Z,97332.52
2023-04-15T10:04:56.121Z,97334.55
2023-04-15T10:07:59.487Z,97332.75
2023-04-15T10:11:19.126Z,97338.34
2023-04-15T10:14:32.948Z,97332.08
2023-04-15T10:17:48.929Z,97329.84
2023-04-15T10:21:01.100Z,97336.71
2023-04-15T10:24:28.774Z,97338.31
2023-04-15T10:27:41.755Z,97335.04
2023-04-15T10:30:57.559Z,97340.04
2023-04-15T10:34:09.238Z,97336.91
2023-04-15T10:37:29.610Z,97334.73
2023-04-15T10:40:39.526Z,97335.20
2023-04-15T10:43:51.080Z,97335.36
2023-04-15T10:46:55.936Z,97340.27
2023-04-15T10:50:03.813Z,97332.61
2023-04-15T10:53:16.003Z,97329.02
2023-04-15T10:56:36.879Z,97326.43
2023-04-15T10:59:56.144Z,97331.02
2023-04-15T11:03:02.925Z,97328.30
2023-04-15T11:06:33.684Z,97327.69
2023-04-15T11:09:46.679Z,97327.67
2023-04-15T11:13:06.808Z,97338.06
2023-04-15T11:16:05.731Z,97341.98
2023-04-15T11:19:19.556Z,97338.71
2023-04-15T11:22:31.045Z,97345.16
2023-04-15T11:25:44.217Z,97344.48
2023-04-15T11:29:04.261Z,97351.36
2023-04-15T11:32:16.185Z,97350.23
2023-04-15T11:35:36.307Z,97349.00
2023-04-15T11:38:47.139Z,97352.17
2023-04-15T11:42:00.030Z,97352.11
2023-04-15T11:45:12.975Z,97362.10
2023-04-15T11:48:39.197Z,97358.75
2023-04-15T11:52:06.915Z,97362.22
2023-04-15T11:55:18.981Z,97363.13
2023-04-15T11:58:32.120Z,97365.59
2023-04-15T12:01:44.810Z,97359.61
2023-04-15T12:04:56.008Z,97362.39
2023-04-15T12:08:12.479Z,97360.63
2023-04-15T12:11:23.333Z,97359.80
2023-04-15T12:14:29.142Z,97360.89
2023-04-15T12:17:51.838Z,97360.19
2023-04-15T12:21:11.041Z,97358.16
2023-04-15T12:24:23.920Z,97367.34
2023-04-15T12:27:37.280Z,97361.17
2023-04-15T12:30:48.461Z,97370.89
2023-04-15T12:34:00.755Z,97366.00
2023-04-15T12:37:14.512Z,97367.47
2023-04-15T12:40:26.467Z,97367.30
2023-04-15T12:43:46.345Z,97366.02
2023-04-15T12:46:57.376Z,97369.38
2023-04-15T12:50:08.818Z,97368.89
2023-04-15T12:53:12.742Z,97370.42
2023-04-15T12:56:34.031Z,97371.61
2023-04-15T12:59:46.775Z,97374.59
2023-04-15T13:02:57.744Z,97369.64
2023-04-15T13:06:09.614Z,97371.20
2023-04-15T13:09:20.857Z,97366.66
2023-04-15T13:12:40.704Z,97369.52
2023-04-15T13:16:05.603Z,97368.41
2023-04-15T13:19:09.098Z,97374.02
2023-04-15T13:22:13.995Z,97373.69
2023-04-15T13:25:25.481Z,97376.81
2023-04-15T13:28:36.318Z,97373.66
2023-04-15T13:31:57.043Z,97375.56
2023-04-15T13:35:10.321Z,97372.59
2023-04-15T13:38:21.771Z,97366.26
2023-04-15T13:41:35.697Z,97364.88
2023-04-15T13:44:55.968Z,97367.19
2023-04-15T13:48:07.489Z,97364.98
2023-04-15T13:51:18.400Z,97364.48
2023-04-15T13:54:38.193Z,97367.77
2023-04-15T13:57:52.737Z,97364.02
2023-04-15T14:01:06.279Z,97366.18
2023-04-15T14:04:21.549Z,97361.38
2023-04-15T14:07:36.764Z,97364.96
2023-04-15T14:10:47.673Z,97354.56
2023-04-15T14:13:58.473Z,97359.70
2023-04-15T14:17:11.387Z,97360.06
2023-04-15T14:20:25.740Z,97363.20
2023-04-15T14:23:37.574Z,97369.68
2023-04-15T14:26:51.664Z,97369.60
2023-04-15T14:30:02.586Z,97370.10
2023-04-15T14:33:08.613Z,97375.65
2023-04-15T14:36:19.538Z,97381.04
2023-04-15T14:39:30.370Z,97383.48
2023-04-15T14:42:45.263Z,97387.73
2023-04-15T14:45:57.370Z,97378.91
2023-04-15T14:49:10.348Z,97380.59
2023-04-15T14:52:21.234Z,97383.10
2023-04-15T14:55:33.426Z,97381.02
2023-04-15T14:58:45.988Z,97384.25
2023-04-15T15:01:58.465Z,97391.65
2023-04-15T15:05:12.981Z,97398.33
2023-04-15T15:08:27.905Z,97397.73
2023-04-15T15:11:47.140Z,97400.38
2023-04-15T15:15:01.648Z,97399.70
2023-04-15T15:18:16.702Z,97403.36
2023-04-15T15:21:27.618Z,97403.14
2023-04-15T15:24:39.810Z,97403.55
2023-04-15T15:28:01.182Z,97403.11
2023-04-15T15:31:21.544Z,97399.17
2023-04-15T15:34:41.487Z,97393.17
2023-04-15T15:37:56.066Z,97395.67
2023-04-15T15:41:12.087Z,97393.12
2023-04-15T15:44:10.657Z,97392.73
2023-04-15T15:47:21.647Z,97400.59
2023-04-15T15:50:32.529Z,97414.44
2023-04-15T15:53:45.882Z,97431.36
2023-04-15T15:56:58.381Z,97456.23
2023-04-15T16:00:12.376Z,97465.82
2023-04-15T16:03:24.987Z,97472.21
2023-04-15T16:06:38.025Z,97479.25
2023-04-15T16:09:50.074Z,97483.77
2023-04-15T16:13:02.888Z,97473.82
2023-04-15T16:16:17.949Z,97465.52
2023-04-15T16:19:57.681Z,97466.86
2023-04-15T16:23:15.432Z,97459.00
2023-04-15T16:26:29.413Z,97462.86
2023-04-15T16:29:42.838Z,97456.62
2023-04-15T16:33:10.632Z,97457.16
2023-04-15T16:36:22.645Z,97467.70
2023-04-15T16:39:33.660Z,97473.83
2023-04-15T16:42:44.588Z,97480.45
2023-04-15T16:45:56.887Z,97482.61
2023-04-15T16:49:08.752Z,97485.82
2023-04-15T16:52:17.904Z,97489.49
2023-04-15T16:55:29.741Z,97492.41
2023-04-15T16:58:40.628Z,97498.00
2023-04-15T17:01:43.607Z,97505.44
2023-04-15T17:04:56.631Z,97510.62
2023-04-15T17:08:10.779Z,97513.48
2023-04-15T17:11:21.666Z,97521.58
2023-04-15T17:14:32.628Z,97522.83
2023-04-15T17:17:47.488Z,97528.29
2023-04-15T17:20:58.350Z,97533.15
2023-04-15T17:24:09.256Z,97535.15
2023-04-15T17:27:21.772Z,97544.23
2023-04-15T17:30:41.112Z,97550.53
2023-04-15T17:34:00.468Z,97552.45
2023-04-15T17:37:23.265Z,97554.14
2023-04-15T17:40:34.248Z,97560.71
2023-04-15T17:43:45.401Z,97570.77
2023-04-15T17:47:04.784Z,97575.62
2023-04-15T17:50:09.302Z,97585.48
2023-04-15T17:53:28.604Z,97587.11
2023-04-15T17:56:40.326Z,97593.27
2023-04-15T17:59:53.735Z,97605.05
2023-04-15T18:03:04.637Z,97610.98
2023-04-15T18:06:15.571Z,97610.51
2023-04-15T18:09:26.908Z,97610.55
2023-04-15T18:12:39.374Z,97622.67
2023-04-15T18:15:51.186Z,97634.52
2023-04-15T18:19:04.016Z,97635.63
2023-04-15T18:22:28.070Z,97636.38
2023-04-15T18:25:39.010Z,97639.05
2023-04-15T18:28:54.958Z,97640.77
2023-04-15T18:32:06.824Z,97642.89
2023-04-15T18:35:19.724Z,97646.86
2023-04-15T18:38:32.487Z,97648.84
2023-04-15T18:41:43.313Z,97655.08
2023-04-15T18:45:03.773Z,97663.02
2023-04-15T18:48:24.262Z,97665.36
2023-04-15T18:51:47.578Z,97671.94
2023-04-15T18:54:58.405Z,97681.93
2023-04-15T18:58:11.253Z,97686.58
2023-04-15T19:01:26.835Z,97688.71
2023-04-15T19:04:29.942Z,97688.01
2023-04-15T19:07:44.022Z,97690.84
2023-04-15T19:11:06.157Z,97688.70
2023-04-15T19:14:19.084Z,97686.74
2023-04-15T19:17:23.632Z,97690.01
2023-04-15T19:20:37.839Z,97694.38
2023-04-15T19:23:50.809Z,97700.85
2023-04-15T19:27:10.017Z,97706.92
2023-04-15T19:30:27.896Z,97713.49
2023-04-15T19:33:44.163Z,97715.56
2023-04-15T19:37:03.506Z,97720.28
2023-04-15T19:40:14.563Z,97722.28
2023-04-15T19:43:26.643Z,97722.28
2023-04-15T19:46:49.980Z,97724.67
2023-04-15T19:50:02.460Z,97731.42
2023-04-15T19:53:21.891Z,97740.36
2023-04-15T19:56:49.582Z,97746.89
2023-04-15T19:59:55.046Z,97753.91
2023-04-15T20:03:07.160Z,97755.13
2023-04-15T20:06:18.221Z,97760.84
2023-04-15T20:09:30.135Z,97766.03
2023-04-15T20:12:52.031Z,97771.52
2023-04-15T20:16:06.545Z,97768.95
2023-04-15T20:19:20.747Z,97775.89
2023-04-15T20:22:33.124Z,97774.80
2023-04-15T20:25:46.586Z,97773.94
2023-04-15T20:28:57.452Z,97770.85
2023-04-15T20:32:09.892Z,97766.45
2023-04-15T20:35:21.496Z,97771.30
2023-04-15T20:38:39.231Z,97774.43
2023-04-15T20:41:52.937Z,97775.06
2023-04-15T20:45:04.376Z,97783.81
2023-04-15T20:48:32.219Z,97786.70
2023-04-15T20:51:45.064Z,97787.23
2023-04-15T20:54:59.895Z,97792.62
2023-04-15T20:58:27.547Z,97797.94
2023-04-15T21:01:40.934Z,97798.19
2023-04-15T21:04:55.162Z,97799.83
2023-04-15T21:07:58.119Z,97803.48
2023-04-15T21:11:43.153Z,97804.57
2023-04-15T21:14:58.412Z,97806.99
2023-04-15T21:18:10.181Z,97812.85
2023-04-15T21:21:26.166Z,97815.01
2023-04-15T21:24:39.174Z,97818.56
2023-04-15T21:27:51.316Z,97821.95
2023-04-15T21:31:02.877Z,97822.77
2023-04-15T21:34:13.669Z,97821.34
2023-04-15T21:37:25.843Z,97822.19
2023-04-15T21:40:39.792Z,97830.59
2023-04-15T21:44:00.127Z,97832.68
2023-04-15T21:47:14.470Z,97837.37
2023-04-15T21:50:28.733Z,97839.34
2023-04-15T21:53:40.733Z,97844.13
2023-04-15T21:57:00.234Z,97848.18
2023-04-15T22:00:13.225Z,97854.36
2023-04-15T22:03:26.625Z,97854.20
2023-04-15T22:06:39.116Z,97852.02
2023-04-15T22:09:51.917Z,97850.19
2023-04-15T22:13:02.450Z,97852.00
2023-04-15T22:16:15.229Z,97857.69
2023-04-15T22:19:30.292Z,97857.58
2023-04-15T22:22:44.056Z,97861.50
2023-04-15T22:25:55.977Z,97865.45
2023-04-15T22:29:09.001Z,97868.00
2023-04-15T22:32:22.049Z,97870.59
2023-04-15T22:35:33.906Z,97873.73
2023-04-15T22:38:45.802Z,97878.08
2023-04-15T22:42:05.081Z,97880.27
2023-04-15T22:45:17.638Z,97884.41
2023-04-15T22:48:28.480Z,97882.73
2023-04-15T22:51:43.505Z,97887.46
2023-04-15T22:54:54.417Z,97891.87
2023-04-15T22:58:05.315Z,97891.44
2023-04-15T23:01:17.437Z,97895.10
2023-04-15T23:04:38.504Z,97900.54
2023-04-15T23:07:57.868Z,97901.60
2023-04-15T23:11:09.504Z,97906.43
2023-04-15T23:14:31.643Z,97908.06
2023-04-15T23:17:42.544Z,97915.48
2023-04-15T23:20:54.168Z,97918.48
2023-04-15T23:24:06.088Z,97918.16
2023-04-15T23:27:18.580Z,97923.10
2023-04-15T23:30:29.495Z,97925.63
2023-04-15T23:33:41.083Z,97924.14
2023-04-15T23:36:45.654Z,97921.23
2023-04-15T23:39:56.691Z,97922.01
2023-04-15T23:43:08.814Z,97920.88
2023-04-15T23:46:21.710Z,97924.75
2023-04-15T23:49:32.982Z,97926.62
2023-04-15T23:52:45.956Z,97929.42
2023-04-15T23:55:59.109Z,97926.66
2023-04-15T23:59:19.388Z,97931.09
